sensor_id;sensor_type;location;lat;lon;timestamp;P1;durP1;ratioP1;P2;durP2;ratioP2
36353;SDS011;22383;51.114;13.666;2023-08-01T00:02:52;8.05;;;3.83;;
36353;SDS011;22383;51.114;13.666;2023-08-01T00:05:32;9.57;;;3.70;;
36353;SDS011;22383;51.114;13.666;2023-08-01T00:08:33;8.90;;;3.60;;
36353;SDS011;22383;51.114;13.666;2023-08-01T00:12:06;7.38;;;3.70;;
36353;SDS011;22383;51.114;13.666;2023-08-01T00:15:11;8.90;;;3.60;;
36353;SDS011;22383;51.114;13.666;2023-08-01T00:17:50;8.95;;;3.40;;
36353;SDS011;22383;51.114;13.666;2023-08-01T00:20:33;8.13;;;3.53;;
36353;SDS011;22383;51.114;13.666;2023-08-01T00:23:45;7.93;;;4.18;;
36353;SDS011;22383;51.114;13.666;2023-08-01T00:26:50;6.97;;;3.38;;
36353;SDS011;22383;51.114;13.666;2023-08-01T00:37:05;5.47;;;3.40;;
36353;SDS011;22383;51.114;13.666;2023-08-01T00:40:00;7.95;;;3.80;;
36353;SDS011;22383;51.114;13.666;2023-08-01T00:43:05;6.75;;;3.60;;
36353;SDS011;22383;51.114;13.666;2023-08-01T00:46:02;6.03;;;3.65;;
36353;SDS011;22383;51.114;13.666;2023-08-01T00:49:04;8.48;;;4.47;;
36353;SDS011;22383;51.114;13.666;2023-08-01T00:52:19;6.07;;;3.10;;
36353;SDS011;22383;51.114;13.666;2023-08-01T00:55:20;6.53;;;3.47;;
36353;SDS011;22383;51.114;13.666;2023-08-01T01:01:57;7.25;;;3.70;;
36353;SDS011;22383;51.114;13.666;2023-08-01T01:04:41;9.38;;;3.25;;
36353;SDS011;22383;51.114;13.666;2023-08-01T01:07:20;6.80;;;3.35;;
36353;SDS011;22383;51.114;13.666;2023-08-01T01:10:03;7.82;;;3.50;;
36353;SDS011;22383;51.114;13.666;2023-08-01T01:13:03;5.10;;;3.63;;
36353;SDS011;22383;51.114;13.666;2023-08-01T01:16:30;5.30;;;3.13;;
36353;SDS011;22383;51.114;13.666;2023-08-01T01:19:21;6.50;;;3.33;;
36353;SDS011;22383;51.114;13.666;2023-08-01T01:21:54;6.50;;;3.47;;
36353;SDS011;22383;51.114;13.666;2023-08-01T01:24:33;6.20;;;3.13;;
36353;SDS011;22383;51.114;13.666;2023-08-01T01:27:21;5.70;;;3.60;;
36353;SDS011;22383;51.114;13.666;2023-08-01T01:30:48;7.97;;;3.10;;
36353;SDS011;22383;51.114;13.666;2023-08-01T01:33:41;5.88;;;3.55;;
36353;SDS011;22383;51.114;13.666;2023-08-01T01:36:41;7.63;;;3.50;;
36353;SDS011;22383;51.114;13.666;2023-08-01T01:43:28;7.80;;;4.00;;
36353;SDS011;22383;51.114;13.666;2023-08-01T01:47:17;6.53;;;3.67;;
36353;SDS011;22383;51.114;13.666;2023-08-01T01:50:28;8.18;;;3.63;;
36353;SDS011;22383;51.114;13.666;2023-08-01T02:01:03;7.72;;;3.50;;
36353;SDS011;22383;51.114;13.666;2023-08-01T02:04:10;6.80;;;3.83;;
36353;SDS011;22383;51.114;13.666;2023-08-01T02:10:30;8.18;;;4.10;;
36353;SDS011;22383;51.114;13.666;2023-08-01T02:17:30;5.28;;;3.45;;
36353;SDS011;22383;51.114;13.666;2023-08-01T02:33:11;7.05;;;4.22;;
36353;SDS011;22383;51.114;13.666;2023-08-01T02:37:11;6.47;;;4.07;;
36353;SDS011;22383;51.114;13.666;2023-08-01T02:40:59;7.88;;;3.78;;
36353;SDS011;22383;51.114;13.666;2023-08-01T02:44:58;6.20;;;3.67;;
36353;SDS011;22383;51.114;13.666;2023-08-01T03:01:18;8.93;;;4.15;;
36353;SDS011;22383;51.114;13.666;2023-08-01T03:05:35;10.17;;;4.27;;
36353;SDS011;22383;51.114;13.666;2023-08-01T03:35:30;6.30;;;3.35;;
36353;SDS011;22383;51.114;13.666;2023-08-01T04:00:18;4.68;;;3.13;;
36353;SDS011;22383;51.114;13.666;2023-08-01T04:30:00;5.22;;;3.20;;
36353;SDS011;22383;51.114;13.666;2023-08-01T04:32:29;6.43;;;2.65;;
36353;SDS011;22383;51.114;13.666;2023-08-01T04:35:05;5.63;;;2.78;;
36353;SDS011;22383;51.114;13.666;2023-08-01T04:40:23;7.93;;;3.13;;
36353;SDS011;22383;51.114;13.666;2023-08-01T04:42:55;4.40;;;3.13;;
36353;SDS011;22383;51.114;13.666;2023-08-01T04:45:25;5.20;;;3.08;;
36353;SDS011;22383;51.114;13.666;2023-08-01T04:47:55;6.38;;;3.08;;
36353;SDS011;22383;51.114;13.666;2023-08-01T04:50:29;4.20;;;2.78;;
36353;SDS011;22383;51.114;13.666;2023-08-01T04:52:59;7.90;;;3.20;;
36353;SDS011;22383;51.114;13.666;2023-08-01T04:55:31;4.88;;;2.88;;
36353;SDS011;22383;51.114;13.666;2023-08-01T04:58:01;4.25;;;2.90;;
36353;SDS011;22383;51.114;13.666;2023-08-01T05:00:40;4.10;;;2.70;;
36353;SDS011;22383;51.114;13.666;2023-08-01T05:03:10;5.30;;;2.90;;
36353;SDS011;22383;51.114;13.666;2023-08-01T05:05:39;5.32;;;3.10;;
36353;SDS011;22383;51.114;13.666;2023-08-01T05:08:09;6.05;;;3.28;;
36353;SDS011;22383;51.114;13.666;2023-08-01T05:10:40;6.32;;;3.42;;
36353;SDS011;22383;51.114;13.666;2023-08-01T05:13:09;6.30;;;3.03;;
36353;SDS011;22383;51.114;13.666;2023-08-01T05:15:44;7.55;;;3.60;;
36353;SDS011;22383;51.114;13.666;2023-08-01T05:18:16;7.07;;;3.70;;
36353;SDS011;22383;51.114;13.666;2023-08-01T05:20:58;6.15;;;3.90;;
36353;SDS011;22383;51.114;13.666;2023-08-01T05:23:30;6.35;;;4.20;;
36353;SDS011;22383;51.114;13.666;2023-08-01T05:25:58;4.63;;;3.58;;
36353;SDS011;22383;51.114;13.666;2023-08-01T05:28:31;5.90;;;3.83;;
36353;SDS011;22383;51.114;13.666;2023-08-01T05:31:01;5.90;;;3.85;;
36353;SDS011;22383;51.114;13.666;2023-08-01T05:33:30;4.82;;;3.58;;
36353;SDS011;22383;51.114;13.666;2023-08-01T05:36:00;6.63;;;3.65;;
36353;SDS011;22383;51.114;13.666;2023-08-01T05:38:29;4.22;;;2.85;;
36353;SDS011;22383;51.114;13.666;2023-08-01T05:40:58;5.88;;;2.58;;
36353;SDS011;22383;51.114;13.666;2023-08-01T05:43:51;3.75;;;2.28;;
36353;SDS011;22383;51.114;13.666;2023-08-01T05:46:21;3.28;;;2.10;;
36353;SDS011;22383;51.114;13.666;2023-08-01T05:48:51;2.88;;;2.35;;
36353;SDS011;22383;51.114;13.666;2023-08-01T05:51:27;5.30;;;2.35;;
36353;SDS011;22383;51.114;13.666;2023-08-01T05:54:01;4.85;;;2.63;;
36353;SDS011;22383;51.114;13.666;2023-08-01T05:56:36;2.85;;;2.35;;
36353;SDS011;22383;51.114;13.666;2023-08-01T05:59:06;3.97;;;2.70;;
36353;SDS011;22383;51.114;13.666;2023-08-01T06:01:44;5.63;;;3.10;;
36353;SDS011;22383;51.114;13.666;2023-08-01T06:04:14;5.15;;;2.75;;
36353;SDS011;22383;51.114;13.666;2023-08-01T06:06:51;8.32;;;2.60;;
36353;SDS011;22383;51.114;13.666;2023-08-01T06:09:21;4.80;;;2.80;;
36353;SDS011;22383;51.114;13.666;2023-08-01T06:12:00;3.60;;;2.75;;
36353;SDS011;22383;51.114;13.666;2023-08-01T06:14:39;4.55;;;3.10;;
36353;SDS011;22383;51.114;13.666;2023-08-01T06:17:25;4.85;;;3.13;;
36353;SDS011;22383;51.114;13.666;2023-08-01T06:20:27;3.40;;;2.92;;
36353;SDS011;22383;51.114;13.666;2023-08-01T06:23:02;5.25;;;3.10;;
36353;SDS011;22383;51.114;13.666;2023-08-01T06:25:44;5.55;;;3.20;;
36353;SDS011;22383;51.114;13.666;2023-08-01T06:28:19;5.20;;;3.13;;
36353;SDS011;22383;51.114;13.666;2023-08-01T06:30:58;4.68;;;2.97;;
36353;SDS011;22383;51.114;13.666;2023-08-01T06:33:27;4.40;;;2.85;;
36353;SDS011;22383;51.114;13.666;2023-08-01T06:36:04;5.73;;;3.13;;
36353;SDS011;22383;51.114;13.666;2023-08-01T06:38:34;4.80;;;2.60;;
36353;SDS011;22383;51.114;13.666;2023-08-01T06:41:06;3.85;;;1.98;;
36353;SDS011;22383;51.114;13.666;2023-08-01T06:43:51;3.38;;;1.90;;
36353;SDS011;22383;51.114;13.666;2023-08-01T06:46:25;5.32;;;2.03;;
36353;SDS011;22383;51.114;13.666;2023-08-01T06:48:58;3.42;;;1.73;;
36353;SDS011;22383;51.114;13.666;2023-08-01T06:51:27;2.10;;;1.70;;
36353;SDS011;22383;51.114;13.666;2023-08-01T06:54:08;3.90;;;1.67;;
36353;SDS011;22383;51.114;13.666;2023-08-01T06:56:43;2.83;;;1.75;;
36353;SDS011;22383;51.114;13.666;2023-08-01T06:59:21;2.20;;;1.55;;
36353;SDS011;22383;51.114;13.666;2023-08-01T07:01:53;3.58;;;1.60;;
36353;SDS011;22383;51.114;13.666;2023-08-01T07:04:28;7.43;;;4.45;;
36353;SDS011;22383;51.114;13.666;2023-08-01T07:07:12;7.72;;;6.05;;
36353;SDS011;22383;51.114;13.666;2023-08-01T07:09:41;4.57;;;3.47;;
36353;SDS011;22383;51.114;13.666;2023-08-01T07:12:11;9.23;;;2.53;;
36353;SDS011;22383;51.114;13.666;2023-08-01T07:14:39;3.35;;;1.70;;
36353;SDS011;22383;51.114;13.666;2023-08-01T07:17:08;4.75;;;1.77;;
36353;SDS011;22383;51.114;13.666;2023-08-01T07:19:36;5.13;;;1.67;;
36353;SDS011;22383;51.114;13.666;2023-08-01T07:22:05;2.42;;;1.42;;
36353;SDS011;22383;51.114;13.666;2023-08-01T07:24:39;2.83;;;1.70;;
36353;SDS011;22383;51.114;13.666;2023-08-01T07:29:52;5.43;;;2.00;;
36353;SDS011;22383;51.114;13.666;2023-08-01T07:32:21;3.35;;;1.63;;
36353;SDS011;22383;51.114;13.666;2023-08-01T07:34:54;2.85;;;1.45;;
36353;SDS011;22383;51.114;13.666;2023-08-01T07:37:25;1.77;;;1.30;;
36353;SDS011;22383;51.114;13.666;2023-08-01T07:39:56;2.40;;;1.70;;
36353;SDS011;22383;51.114;13.666;2023-08-01T07:42:25;3.50;;;1.90;;
36353;SDS011;22383;51.114;13.666;2023-08-01T07:45:05;3.78;;;1.98;;
36353;SDS011;22383;51.114;13.666;2023-08-01T07:47:40;3.30;;;1.83;;
36353;SDS011;22383;51.114;13.666;2023-08-01T07:50:15;2.53;;;1.65;;
36353;SDS011;22383;51.114;13.666;2023-08-01T07:52:45;5.10;;;2.08;;
36353;SDS011;22383;51.114;13.666;2023-08-01T07:55:19;1.65;;;1.50;;
36353;SDS011;22383;51.114;13.666;2023-08-01T07:57:50;2.50;;;1.40;;
36353;SDS011;22383;51.114;13.666;2023-08-01T08:00:19;3.92;;;1.70;;
36353;SDS011;22383;51.114;13.666;2023-08-01T08:02:55;2.42;;;1.70;;
36353;SDS011;22383;51.114;13.666;2023-08-01T08:05:25;2.90;;;1.73;;
36353;SDS011;22383;51.114;13.666;2023-08-01T08:07:58;2.97;;;1.50;;
36353;SDS011;22383;51.114;13.666;2023-08-01T08:10:30;2.35;;;1.50;;
36353;SDS011;22383;51.114;13.666;2023-08-01T08:13:00;4.38;;;1.60;;
36353;SDS011;22383;51.114;13.666;2023-08-01T08:15:28;3.15;;;1.60;;
36353;SDS011;22383;51.114;13.666;2023-08-01T08:18:01;3.22;;;1.27;;
36353;SDS011;22383;51.114;13.666;2023-08-01T08:20:43;3.17;;;1.15;;
36353;SDS011;22383;51.114;13.666;2023-08-01T08:23:14;1.50;;;1.20;;
36353;SDS011;22383;51.114;13.666;2023-08-01T08:25:49;1.52;;;1.15;;
36353;SDS011;22383;51.114;13.666;2023-08-01T08:32:22;2.97;;;1.40;;
36353;SDS011;22383;51.114;13.666;2023-08-01T08:34:50;2.95;;;1.17;;
36353;SDS011;22383;51.114;13.666;2023-08-01T08:37:18;1.48;;;1.00;;
36353;SDS011;22383;51.114;13.666;2023-08-01T08:39:46;3.80;;;2.40;;
36353;SDS011;22383;51.114;13.666;2023-08-01T08:42:32;2.72;;;1.80;;
36353;SDS011;22383;51.114;13.666;2023-08-01T08:45:08;2.13;;;1.60;;
36353;SDS011;22383;51.114;13.666;2023-08-01T08:47:41;2.65;;;1.02;;
36353;SDS011;22383;51.114;13.666;2023-08-01T08:50:20;2.15;;;1.10;;
36353;SDS011;22383;51.114;13.666;2023-08-01T08:59:08;1.88;;;1.20;;
36353;SDS011;22383;51.114;13.666;2023-08-01T09:01:40;2.05;;;1.08;;
36353;SDS011;22383;51.114;13.666;2023-08-01T09:04:11;2.30;;;1.30;;
36353;SDS011;22383;51.114;13.666;2023-08-01T09:06:44;2.08;;;1.00;;
36353;SDS011;22383;51.114;13.666;2023-08-01T09:09:17;1.52;;;1.20;;
36353;SDS011;22383;51.114;13.666;2023-08-01T09:11:47;2.58;;;1.02;;
36353;SDS011;22383;51.114;13.666;2023-08-01T09:14:17;1.45;;;1.00;;
36353;SDS011;22383;51.114;13.666;2023-08-01T09:16:51;2.50;;;1.02;;
36353;SDS011;22383;51.114;13.666;2023-08-01T09:19:24;2.67;;;0.90;;
36353;SDS011;22383;51.114;13.666;2023-08-01T09:22:01;1.77;;;1.08;;
36353;SDS011;22383;51.114;13.666;2023-08-01T09:24:38;2.28;;;0.93;;
36353;SDS011;22383;51.114;13.666;2023-08-01T09:27:09;2.13;;;1.00;;
36353;SDS011;22383;51.114;13.666;2023-08-01T09:29:37;3.63;;;0.95;;
36353;SDS011;22383;51.114;13.666;2023-08-01T09:32:14;2.40;;;1.10;;
36353;SDS011;22383;51.114;13.666;2023-08-01T10:55:58;1.38;;;0.90;;
36353;SDS011;22383;51.114;13.666;2023-08-01T10:59:48;1.92;;;0.82;;
36353;SDS011;22383;51.114;13.666;2023-08-01T11:03:33;0.90;;;0.60;;
36353;SDS011;22383;51.114;13.666;2023-08-01T11:06:46;1.50;;;0.68;;
36353;SDS011;22383;51.114;13.666;2023-08-01T11:09:31;1.80;;;1.25;;
36353;SDS011;22383;51.114;13.666;2023-08-01T11:12:50;0.77;;;0.60;;
36353;SDS011;22383;51.114;13.666;2023-08-01T11:27:06;0.95;;;0.60;;
36353;SDS011;22383;51.114;13.666;2023-08-01T11:34:14;1.63;;;0.60;;
36353;SDS011;22383;51.114;13.666;2023-08-01T11:37:18;3.63;;;2.90;;
36353;SDS011;22383;51.114;13.666;2023-08-01T11:39:54;1.25;;;1.15;;
36353;SDS011;22383;51.114;13.666;2023-08-01T11:46:48;1.42;;;0.73;;
36353;SDS011;22383;51.114;13.666;2023-08-01T11:49:39;2.53;;;0.82;;
36353;SDS011;22383;51.114;13.666;2023-08-01T11:57:09;1.75;;;1.10;;
36353;SDS011;22383;51.114;13.666;2023-08-01T11:59:57;1.83;;;0.95;;
36353;SDS011;22383;51.114;13.666;2023-08-01T12:02:47;1.75;;;1.00;;
36353;SDS011;22383;51.114;13.666;2023-08-01T12:06:14;5.93;;;1.73;;
36353;SDS011;22383;51.114;13.666;2023-08-01T12:08:43;2.22;;;1.00;;
36353;SDS011;22383;51.114;13.666;2023-08-01T12:13:47;0.75;;;0.50;;
36353;SDS011;22383;51.114;13.666;2023-08-01T12:16:27;1.33;;;0.50;;
36353;SDS011;22383;51.114;13.666;2023-08-01T12:18:55;1.50;;;0.55;;
36353;SDS011;22383;51.114;13.666;2023-08-01T12:21:28;0.45;;;0.30;;
36353;SDS011;22383;51.114;13.666;2023-08-01T12:23:56;1.58;;;0.80;;
36353;SDS011;22383;51.114;13.666;2023-08-01T12:26:24;1.15;;;0.80;;
36353;SDS011;22383;51.114;13.666;2023-08-01T12:28:52;1.70;;;0.98;;
36353;SDS011;22383;51.114;13.666;2023-08-01T12:31:20;1.17;;;0.85;;
36353;SDS011;22383;51.114;13.666;2023-08-01T12:33:49;3.78;;;0.90;;
36353;SDS011;22383;51.114;13.666;2023-08-01T12:36:17;1.92;;;0.73;;
36353;SDS011;22383;51.114;13.666;2023-08-01T12:38:45;4.93;;;0.70;;
36353;SDS011;22383;51.114;13.666;2023-08-01T12:41:12;2.00;;;0.80;;
36353;SDS011;22383;51.114;13.666;2023-08-01T12:43:41;1.20;;;0.90;;
36353;SDS011;22383;51.114;13.666;2023-08-01T12:46:08;2.70;;;0.98;;
36353;SDS011;22383;51.114;13.666;2023-08-01T12:48:38;1.85;;;0.80;;
36353;SDS011;22383;51.114;13.666;2023-08-01T12:51:06;2.90;;;1.10;;
36353;SDS011;22383;51.114;13.666;2023-08-01T12:53:33;2.58;;;0.90;;
36353;SDS011;22383;51.114;13.666;2023-08-01T12:56:06;1.70;;;0.70;;
36353;SDS011;22383;51.114;13.666;2023-08-01T12:58:34;1.70;;;0.90;;
36353;SDS011;22383;51.114;13.666;2023-08-01T13:01:03;1.13;;;0.70;;
36353;SDS011;22383;51.114;13.666;2023-08-01T13:03:31;1.20;;;0.85;;
36353;SDS011;22383;51.114;13.666;2023-08-01T13:06:44;3.92;;;2.05;;
36353;SDS011;22383;51.114;13.666;2023-08-01T13:09:12;1.50;;;1.25;;
36353;SDS011;22383;51.114;13.666;2023-08-01T13:22:53;1.65;;;1.30;;
36353;SDS011;22383;51.114;13.666;2023-08-01T13:25:33;2.78;;;1.50;;
36353;SDS011;22383;51.114;13.666;2023-08-01T13:28:41;1.60;;;1.35;;
36353;SDS011;22383;51.114;13.666;2023-08-01T13:31:10;2.13;;;1.50;;
36353;SDS011;22383;51.114;13.666;2023-08-01T13:33:37;2.55;;;1.27;;
36353;SDS011;22383;51.114;13.666;2023-08-01T13:36:04;2.58;;;1.73;;
36353;SDS011;22383;51.114;13.666;2023-08-01T13:38:32;3.45;;;1.63;;
36353;SDS011;22383;51.114;13.666;2023-08-01T13:40:59;1.80;;;1.40;;
36353;SDS011;22383;51.114;13.666;2023-08-01T13:43:28;2.22;;;1.75;;
36353;SDS011;22383;51.114;13.666;2023-08-01T13:45:55;3.38;;;1.60;;
36353;SDS011;22383;51.114;13.666;2023-08-01T13:48:23;3.20;;;1.73;;
36353;SDS011;22383;51.114;13.666;2023-08-01T13:50:50;2.60;;;1.90;;
36353;SDS011;22383;51.114;13.666;2023-08-01T13:53:18;1.88;;;1.67;;
36353;SDS011;22383;51.114;13.666;2023-08-01T13:58:13;2.67;;;2.47;;
36353;SDS011;22383;51.114;13.666;2023-08-01T14:00:40;2.55;;;2.35;;
36353;SDS011;22383;51.114;13.666;2023-08-01T14:03:12;3.80;;;2.47;;
36353;SDS011;22383;51.114;13.666;2023-08-01T14:05:40;3.03;;;2.38;;
36353;SDS011;22383;51.114;13.666;2023-08-01T14:08:08;3.30;;;2.70;;
36353;SDS011;22383;51.114;13.666;2023-08-01T14:10:35;4.80;;;2.60;;
36353;SDS011;22383;51.114;13.666;2023-08-01T14:13:02;3.58;;;2.70;;
36353;SDS011;22383;51.114;13.666;2023-08-01T14:17:57;5.93;;;3.22;;
36353;SDS011;22383;51.114;13.666;2023-08-01T14:20:25;4.50;;;3.10;;
36353;SDS011;22383;51.114;13.666;2023-08-01T14:22:52;4.57;;;2.78;;
36353;SDS011;22383;51.114;13.666;2023-08-01T14:25:19;3.75;;;2.60;;
36353;SDS011;22383;51.114;13.666;2023-08-01T14:27:47;4.10;;;3.13;;
36353;SDS011;22383;51.114;13.666;2023-08-01T14:30:14;10.68;;;3.40;;
36353;SDS011;22383;51.114;13.666;2023-08-01T14:35:37;5.97;;;3.13;;
36353;SDS011;22383;51.114;13.666;2023-08-01T14:38:17;5.72;;;3.40;;
36353;SDS011;22383;51.114;13.666;2023-08-01T14:40:48;7.05;;;4.00;;
36353;SDS011;22383;51.114;13.666;2023-08-01T14:43:42;5.10;;;3.33;;
36353;SDS011;22383;51.114;13.666;2023-08-01T14:46:14;4.88;;;3.65;;
36353;SDS011;22383;51.114;13.666;2023-08-01T14:48:44;4.78;;;3.25;;
36353;SDS011;22383;51.114;13.666;2023-08-01T14:51:15;4.68;;;3.55;;
36353;SDS011;22383;51.114;13.666;2023-08-01T14:53:45;6.07;;;4.22;;
36353;SDS011;22383;51.114;13.666;2023-08-01T14:56:22;4.47;;;3.78;;
36353;SDS011;22383;51.114;13.666;2023-08-01T14:58:50;8.50;;;4.70;;
36353;SDS011;22383;51.114;13.666;2023-08-01T15:03:47;8.80;;;3.97;;
36353;SDS011;22383;51.114;13.666;2023-08-01T15:06:51;5.05;;;3.30;;
36353;SDS011;22383;51.114;13.666;2023-08-01T15:09:34;4.95;;;3.95;;
36353;SDS011;22383;51.114;13.666;2023-08-01T15:12:06;5.70;;;4.28;;
36353;SDS011;22383;51.114;13.666;2023-08-01T15:14:56;7.97;;;4.15;;
36353;SDS011;22383;51.114;13.666;2023-08-01T15:17:24;6.90;;;4.00;;
36353;SDS011;22383;51.114;13.666;2023-08-01T15:19:53;6.18;;;4.10;;
36353;SDS011;22383;51.114;13.666;2023-08-01T15:24:52;5.95;;;4.40;;
36353;SDS011;22383;51.114;13.666;2023-08-01T15:27:22;7.30;;;5.43;;
36353;SDS011;22383;51.114;13.666;2023-08-01T15:29:54;6.40;;;4.38;;
36353;SDS011;22383;51.114;13.666;2023-08-01T15:32:26;4.82;;;3.97;;
36353;SDS011;22383;51.114;13.666;2023-08-01T15:34:54;9.10;;;4.25;;
36353;SDS011;22383;51.114;13.666;2023-08-01T15:37:27;5.60;;;4.63;;
36353;SDS011;22383;51.114;13.666;2023-08-01T15:40:09;5.53;;;4.10;;
36353;SDS011;22383;51.114;13.666;2023-08-01T15:45:04;5.95;;;4.30;;
36353;SDS011;22383;51.114;13.666;2023-08-01T15:47:35;7.03;;;4.32;;
36353;SDS011;22383;51.114;13.666;2023-08-01T15:50:03;7.13;;;4.45;;
36353;SDS011;22383;51.114;13.666;2023-08-01T15:55:06;8.43;;;4.38;;
36353;SDS011;22383;51.114;13.666;2023-08-01T15:57:40;6.95;;;4.40;;
36353;SDS011;22383;51.114;13.666;2023-08-01T16:00:23;5.75;;;3.88;;
36353;SDS011;22383;51.114;13.666;2023-08-01T16:02:55;5.55;;;3.80;;
36353;SDS011;22383;51.114;13.666;2023-08-01T16:05:30;6.53;;;3.63;;
36353;SDS011;22383;51.114;13.666;2023-08-01T16:08:00;5.22;;;3.63;;
36353;SDS011;22383;51.114;13.666;2023-08-01T16:11:18;4.15;;;2.75;;
36353;SDS011;22383;51.114;13.666;2023-08-01T16:13:46;6.28;;;2.33;;
36353;SDS011;22383;51.114;13.666;2023-08-01T16:16:14;4.45;;;2.58;;
36353;SDS011;22383;51.114;13.666;2023-08-01T16:18:42;5.97;;;2.67;;
36353;SDS011;22383;51.114;13.666;2023-08-01T16:21:12;3.38;;;2.33;;
36353;SDS011;22383;51.114;13.666;2023-08-01T16:23:49;2.88;;;2.33;;
36353;SDS011;22383;51.114;13.666;2023-08-01T16:26:23;3.35;;;2.28;;
36353;SDS011;22383;51.114;13.666;2023-08-01T16:29:02;2.85;;;1.88;;
36353;SDS011;22383;51.114;13.666;2023-08-01T16:31:30;3.50;;;2.20;;
36353;SDS011;22383;51.114;13.666;2023-08-01T16:33:58;3.33;;;1.75;;
36353;SDS011;22383;51.114;13.666;2023-08-01T16:36:28;2.08;;;1.40;;
36353;SDS011;22383;51.114;13.666;2023-08-01T16:38:56;3.22;;;1.67;;
36353;SDS011;22383;51.114;13.666;2023-08-01T16:41:23;3.80;;;1.65;;
36353;SDS011;22383;51.114;13.666;2023-08-01T16:43:51;2.42;;;1.65;;
36353;SDS011;22383;51.114;13.666;2023-08-01T16:46:20;2.72;;;1.67;;
36353;SDS011;22383;51.114;13.666;2023-08-01T16:48:49;2.58;;;1.60;;
36353;SDS011;22383;51.114;13.666;2023-08-01T16:51:36;3.78;;;1.45;;
36353;SDS011;22383;51.114;13.666;2023-08-01T16:54:03;2.40;;;1.40;;
36353;SDS011;22383;51.114;13.666;2023-08-01T16:56:31;2.28;;;1.90;;
36353;SDS011;22383;51.114;13.666;2023-08-01T16:58:59;2.90;;;1.60;;
36353;SDS011;22383;51.114;13.666;2023-08-01T17:01:30;1.70;;;1.60;;
36353;SDS011;22383;51.114;13.666;2023-08-01T17:03:59;2.85;;;1.90;;
36353;SDS011;22383;51.114;13.666;2023-08-01T17:06:30;2.10;;;1.52;;
36353;SDS011;22383;51.114;13.666;2023-08-01T17:08:58;2.65;;;1.50;;
36353;SDS011;22383;51.114;13.666;2023-08-01T17:11:28;1.92;;;1.50;;
36353;SDS011;22383;51.114;13.666;2023-08-01T17:14:00;2.60;;;1.33;;
36353;SDS011;22383;51.114;13.666;2023-08-01T17:16:52;3.13;;;1.40;;
36353;SDS011;22383;51.114;13.666;2023-08-01T17:19:24;1.92;;;1.30;;
36353;SDS011;22383;51.114;13.666;2023-08-01T17:22:08;1.95;;;1.52;;
36353;SDS011;22383;51.114;13.666;2023-08-01T17:24:36;2.55;;;1.42;;
36353;SDS011;22383;51.114;13.666;2023-08-01T17:27:11;1.60;;;1.48;;
36353;SDS011;22383;51.114;13.666;2023-08-01T17:29:52;3.17;;;1.95;;
36353;SDS011;22383;51.114;13.666;2023-08-01T17:32:19;2.83;;;2.00;;
36353;SDS011;22383;51.114;13.666;2023-08-01T17:34:49;2.80;;;1.63;;
36353;SDS011;22383;51.114;13.666;2023-08-01T17:37:23;3.67;;;2.03;;
36353;SDS011;22383;51.114;13.666;2023-08-01T17:39:55;3.38;;;1.70;;
36353;SDS011;22383;51.114;13.666;2023-08-01T17:42:24;3.58;;;2.00;;
36353;SDS011;22383;51.114;13.666;2023-08-01T17:44:51;4.03;;;1.88;;
36353;SDS011;22383;51.114;13.666;2023-08-01T17:47:20;4.95;;;3.30;;
36353;SDS011;22383;51.114;13.666;2023-08-01T17:50:03;3.50;;;2.20;;
36353;SDS011;22383;51.114;13.666;2023-08-01T17:52:36;5.18;;;1.90;;
36353;SDS011;22383;51.114;13.666;2023-08-01T17:55:04;2.00;;;1.80;;
36353;SDS011;22383;51.114;13.666;2023-08-01T17:57:34;4.05;;;1.92;;
36353;SDS011;22383;51.114;13.666;2023-08-01T18:00:09;3.88;;;2.33;;
36353;SDS011;22383;51.114;13.666;2023-08-01T18:02:53;3.22;;;1.90;;
36353;SDS011;22383;51.114;13.666;2023-08-01T18:05:22;3.80;;;2.35;;
36353;SDS011;22383;51.114;13.666;2023-08-01T18:07:51;3.40;;;2.55;;
36353;SDS011;22383;51.114;13.666;2023-08-01T18:10:23;6.15;;;2.13;;
36353;SDS011;22383;51.114;13.666;2023-08-01T18:13:01;4.30;;;1.90;;
36353;SDS011;22383;51.114;13.666;2023-08-01T18:15:36;6.78;;;2.10;;
36353;SDS011;22383;51.114;13.666;2023-08-01T18:18:08;4.35;;;2.55;;
36353;SDS011;22383;51.114;13.666;2023-08-01T18:20:41;4.10;;;2.03;;
36353;SDS011;22383;51.114;13.666;2023-08-01T18:23:09;3.28;;;2.42;;
36353;SDS011;22383;51.114;13.666;2023-08-01T18:25:37;5.75;;;2.28;;
36353;SDS011;22383;51.114;13.666;2023-08-01T18:28:09;2.90;;;2.30;;
36353;SDS011;22383;51.114;13.666;2023-08-01T18:30:49;2.88;;;1.90;;
36353;SDS011;22383;51.114;13.666;2023-08-01T18:33:18;4.75;;;2.17;;
36353;SDS011;22383;51.114;13.666;2023-08-01T18:35:53;4.07;;;2.42;;
36353;SDS011;22383;51.114;13.666;2023-08-01T18:41:06;7.72;;;2.20;;
36353;SDS011;22383;51.114;13.666;2023-08-01T18:43:42;4.95;;;2.38;;
36353;SDS011;22383;51.114;13.666;2023-08-01T18:46:12;4.60;;;2.10;;
36353;SDS011;22383;51.114;13.666;2023-08-01T18:48:52;3.65;;;2.33;;
36353;SDS011;22383;51.114;13.666;2023-08-01T18:51:29;5.35;;;2.30;;
36353;SDS011;22383;51.114;13.666;2023-08-01T18:54:03;4.28;;;2.28;;
36353;SDS011;22383;51.114;13.666;2023-08-01T18:56:38;4.80;;;2.38;;
36353;SDS011;22383;51.114;13.666;2023-08-01T18:59:10;4.10;;;2.00;;
36353;SDS011;22383;51.114;13.666;2023-08-01T19:01:38;3.53;;;2.13;;
36353;SDS011;22383;51.114;13.666;2023-08-01T19:04:15;4.38;;;2.50;;
36353;SDS011;22383;51.114;13.666;2023-08-01T19:06:53;3.75;;;2.28;;
36353;SDS011;22383;51.114;13.666;2023-08-01T19:09:24;3.35;;;2.17;;
36353;SDS011;22383;51.114;13.666;2023-08-01T19:11:54;3.72;;;2.10;;
36353;SDS011;22383;51.114;13.666;2023-08-01T19:14:27;5.93;;;2.00;;
36353;SDS011;22383;51.114;13.666;2023-08-01T19:16:58;4.50;;;2.20;;
36353;SDS011;22383;51.114;13.666;2023-08-01T19:19:26;3.13;;;2.30;;
36353;SDS011;22383;51.114;13.666;2023-08-01T19:21:55;5.43;;;2.67;;
36353;SDS011;22383;51.114;13.666;2023-08-01T19:26:50;3.95;;;2.25;;
36353;SDS011;22383;51.114;13.666;2023-08-01T19:29:19;6.07;;;2.38;;
36353;SDS011;22383;51.114;13.666;2023-08-01T19:31:52;3.03;;;1.90;;
36353;SDS011;22383;51.114;13.666;2023-08-01T19:34:21;3.95;;;2.10;;
36353;SDS011;22383;51.114;13.666;2023-08-01T19:37:39;5.60;;;2.35;;
36353;SDS011;22383;51.114;13.666;2023-08-01T19:40:07;4.32;;;2.35;;
36353;SDS011;22383;51.114;13.666;2023-08-01T19:42:35;2.97;;;2.20;;
36353;SDS011;22383;51.114;13.666;2023-08-01T19:45:03;4.25;;;2.47;;
36353;SDS011;22383;51.114;13.666;2023-08-01T19:47:36;5.32;;;2.45;;
36353;SDS011;22383;51.114;13.666;2023-08-01T19:50:13;5.38;;;2.95;;
36353;SDS011;22383;51.114;13.666;2023-08-01T19:52:51;8.00;;;2.40;;
36353;SDS011;22383;51.114;13.666;2023-08-01T19:55:28;5.65;;;2.60;;
36353;SDS011;22383;51.114;13.666;2023-08-01T19:57:58;4.15;;;2.60;;
36353;SDS011;22383;51.114;13.666;2023-08-01T20:00:26;3.13;;;2.33;;
36353;SDS011;22383;51.114;13.666;2023-08-01T20:02:54;3.20;;;2.40;;
36353;SDS011;22383;51.114;13.666;2023-08-01T20:05:22;4.40;;;2.17;;
36353;SDS011;22383;51.114;13.666;2023-08-01T20:07:49;3.05;;;2.25;;
36353;SDS011;22383;51.114;13.666;2023-08-01T20:10:18;3.78;;;2.33;;
36353;SDS011;22383;51.114;13.666;2023-08-01T20:15:12;5.97;;;2.75;;
36353;SDS011;22383;51.114;13.666;2023-08-01T20:17:40;4.80;;;2.60;;
36353;SDS011;22383;51.114;13.666;2023-08-01T20:20:09;3.90;;;2.22;;
36353;SDS011;22383;51.114;13.666;2023-08-01T20:22:37;10.13;;;2.38;;
36353;SDS011;22383;51.114;13.666;2023-08-01T20:25:04;5.00;;;2.80;;
36353;SDS011;22383;51.114;13.666;2023-08-01T20:27:33;5.35;;;1.83;;
36353;SDS011;22383;51.114;13.666;2023-08-01T20:30:00;4.97;;;2.80;;